In Rescue
 
Open Full Screen Window  High Contrast Mode
Wind Gusting 00 knots
06
March 19, 2019 7:08 PM EDT
Weather Information
Wind Direction
  270 °
Wind Speed
  06 kt (7 mph)
Wind Gust
  00 kt (0 mph)
Altimeter
30.30 in
Visibility
10 SM
Temperature
08° C
46° F
Dewpoint
-07° C
19° F
Humidity
34%
Sky Condition
Clear
VFR

METAR KHAI 192308Z AUTO 27006KT 10SM CLR 08/M07 A3030 RMK AO2 T00761067

FAA Disclaimer: The data displayed is for advisory purposes only and is not to be used for flight planning or operations.